Time;durP1;ratioP1;P1;durP2;ratioP2;P2;SDS_P1;SDS_P2;PMS_P1;PMS_P2;Temp;Humidity;BMP_temperature;BMP_pressure;BME280_temperature;BME280_humidity;BME280_pressure;Samples;Min_cycle;Max_cycle;Signal;HPM_P1;HPM_P2
2022/01/16 00:00:16;;;;;;;94.90;38.47;;;1.00;87.90;;;;;;5083495;28;20094;-75
2022/01/16 00:05:24;;;;;;;88.80;35.22;;;1.10;87.90;;;;;;5056615;28;20556;-75
2022/01/16 00:07:50;;;;;;;91.03;37.53;;;1.00;87.90;;;;;;5043709;28;20132;-75
2022/01/16 00:10:18;;;;;;;91.43;36.07;;;1.00;87.80;;;;;;5026574;28;20077;-75
2022/01/16 00:12:52;;;;;;;83.63;33.28;;;1.00;87.60;;;;;;5056464;28;20080;-75
2022/01/16 00:15:20;;;;;;;79.80;32.08;;;1.00;87.60;;;;;;5044123;28;20106;-75
2022/01/16 00:18:07;;;;;;;83.13;34.65;;;1.00;87.70;;;;;;5059774;28;20043;-75
2022/01/16 00:20:33;;;;;;;80.28;33.75;;;1.00;87.70;;;;;;5030619;28;20416;-75
2022/01/16 00:22:59;;;;;;;81.27;33.53;;;1.00;87.80;;;;;;5043558;28;20052;-75
2022/01/16 00:25:25;;;;;;;88.95;35.25;;;1.00;87.70;;;;;;5054755;28;20389;-75
2022/01/16 00:27:52;;;;;;;87.40;34.75;;;1.00;87.90;;;;;;5039517;28;20036;-75
2022/01/16 00:30:19;;;;;;;80.88;34.83;;;1.00;87.90;;;;;;5059113;28;20064;-75
2022/01/16 00:32:45;;;;;;;80.30;33.13;;;1.10;88.00;;;;;;5028725;28;20123;-75
2022/01/16 00:35:11;;;;;;;78.45;32.42;;;1.10;88.10;;;;;;5038914;28;20128;-75
2022/01/16 00:37:38;;;;;;;80.57;33.08;;;1.10;87.90;;;;;;5036218;28;20120;-75
2022/01/16 00:40:05;;;;;;;79.28;32.67;;;1.10;88.00;;;;;;5035835;28;20117;-75
2022/01/16 00:42:31;;;;;;;82.05;33.33;;;1.10;88.00;;;;;;5027510;28;20045;-75
2022/01/16 00:44:56;;;;;;;84.20;33.40;;;1.10;88.00;;;;;;5021041;28;20567;-75
2022/01/16 00:47:22;;;;;;;90.37;35.33;;;1.10;88.00;;;;;;5024574;28;20048;-75
2022/01/16 00:49:48;;;;;;;86.27;34.17;;;1.10;88.20;;;;;;5031161;28;20044;-75
2022/01/16 00:52:13;;;;;;;94.30;36.43;;;1.10;88.30;;;;;;5054201;28;20045;-75
2022/01/16 00:54:39;;;;;;;90.23;34.07;;;1.20;88.30;;;;;;5057279;28;20644;-75
2022/01/16 00:57:05;;;;;;;99.03;37.57;;;1.20;88.40;;;;;;5045884;28;20044;-75
2022/01/16 00:59:34;;;;;;;100.95;36.35;;;1.20;88.30;;;;;;5039206;28;20098;-75
2022/01/16 01:02:00;;;;;;;102.88;37.30;;;1.10;88.20;;;;;;5070176;28;20123;-75
2022/01/16 01:04:26;;;;;;;100.63;37.05;;;1.20;88.20;;;;;;5040082;28;20032;-75
2022/01/16 01:06:53;;;;;;;111.87;38.33;;;1.20;88.30;;;;;;5031986;28;20382;-75
2022/01/16 01:09:19;;;;;;;110.20;38.95;;;1.10;88.40;;;;;;5043100;28;20125;-75
2022/01/16 01:11:49;;;;;;;112.10;38.92;;;1.20;88.50;;;;;;5041366;28;20029;-75
2022/01/16 01:14:24;;;;;;;121.90;40.17;;;1.20;88.50;;;;;;5051216;28;20452;-75
2022/01/16 01:19:17;;;;;;;119.10;39.20;;;1.20;88.60;;;;;;5057047;28;20135;-75
2022/01/16 01:21:43;;;;;;;117.20;39.67;;;1.20;88.60;;;;;;5045503;28;20037;-75
2022/01/16 01:24:09;;;;;;;120.43;40.57;;;1.20;88.70;;;;;;5054822;28;20093;-75
2022/01/16 01:26:47;;;;;;;126.83;41.37;;;1.30;88.70;;;;;;5053142;28;20571;-75
2022/01/16 01:29:17;;;;;;;121.65;40.75;;;1.30;88.70;;;;;;5053274;28;20389;-75
2022/01/16 01:31:43;;;;;;;126.55;41.63;;;1.30;88.80;;;;;;5054475;28;20060;-75
2022/01/16 01:34:08;;;;;;;144.17;42.33;;;1.30;88.80;;;;;;5040771;28;20075;-75
2022/01/16 01:36:34;;;;;;;141.17;43.00;;;1.30;88.80;;;;;;5048390;28;20097;-75
2022/01/16 01:39:00;;;;;;;148.53;42.10;;;1.40;88.80;;;;;;5062435;28;20032;-75
2022/01/16 01:41:28;;;;;;;157.37;44.17;;;1.40;89.00;;;;;;5042361;28;20389;-75
2022/01/16 01:52:06;;;;;;;222.65;47.92;;;1.50;89.00;;;;;;5048387;28;20047;-75
2022/01/16 01:54:32;;;;;;;224.67;50.70;;;1.50;89.10;;;;;;5036252;28;20048;-75
2022/01/16 01:56:59;;;;;;;228.27;49.20;;;1.50;89.10;;;;;;5049498;28;20048;-75
2022/01/16 01:59:25;;;;;;;209.98;48.22;;;1.50;89.20;;;;;;5046462;28;20048;-75
2022/01/16 02:01:51;;;;;;;181.57;45.87;;;1.60;89.20;;;;;;5025776;28;20067;-75
2022/01/16 02:04:16;;;;;;;208.23;48.07;;;1.60;89.20;;;;;;5029395;28;20054;-75
2022/01/16 02:06:42;;;;;;;202.73;47.57;;;1.60;89.20;;;;;;5051168;28;20067;-75
2022/01/16 02:09:08;;;;;;;177.10;45.20;;;1.60;89.30;;;;;;5021859;28;20039;-75
2022/01/16 02:11:34;;;;;;;188.10;46.70;;;1.60;89.20;;;;;;5039025;28;20040;-75
2022/01/16 02:14:11;;;;;;;169.40;44.33;;;1.60;89.30;;;;;;5067036;28;20047;-75
2022/01/16 02:29:00;;;;;;;222.45;47.72;;;1.70;89.40;;;;;;5062438;28;20070;-75
2022/01/16 02:36:45;;;;;;;210.77;49.67;;;1.70;89.40;;;;;;5054075;28;20046;-75
2022/01/16 02:39:12;;;;;;;173.32;45.22;;;1.80;89.50;;;;;;5053470;28;20051;-75
2022/01/16 02:41:39;;;;;;;260.30;51.50;;;1.80;89.40;;;;;;5049481;28;20510;-75
2022/01/16 02:44:17;;;;;;;209.45;48.92;;;1.80;89.40;;;;;;5068256;28;20147;-75
2022/01/16 02:46:44;;;;;;;228.85;48.13;;;1.80;89.50;;;;;;5056894;28;20039;-75
2022/01/16 02:49:21;;;;;;;214.88;49.05;;;1.80;89.60;;;;;;5041726;28;20072;-75
2022/01/16 02:51:48;;;;;;;194.32;46.30;;;1.80;89.60;;;;;;5038187;28;20113;-76
2022/01/16 02:54:14;;;;;;;184.85;44.78;;;1.80;89.50;;;;;;5039472;28;20114;-75
2022/01/16 02:56:40;;;;;;;226.40;47.93;;;1.80;89.60;;;;;;5052901;28;20056;-75
2022/01/16 02:59:09;;;;;;;236.70;51.77;;;1.80;89.50;;;;;;5043417;28;20037;-75
2022/01/16 03:01:35;;;;;;;183.27;47.33;;;1.80;89.50;;;;;;5037151;28;20056;-75
2022/01/16 03:04:01;;;;;;;220.07;52.23;;;1.80;89.50;;;;;;5067247;28;20044;-75
2022/01/16 03:06:28;;;;;;;233.32;50.75;;;1.80;89.50;;;;;;5015581;28;20047;-75
2022/01/16 03:08:54;;;;;;;204.52;46.92;;;1.80;89.50;;;;;;5061701;28;20111;-75
2022/01/16 03:13:49;;;;;;;205.95;50.10;;;1.90;89.60;;;;;;5039266;28;20127;-75
2022/01/16 03:16:17;;;;;;;173.30;48.53;;;1.90;89.60;;;;;;5053819;28;20344;-74
2022/01/16 03:24:12;;;;;;;195.30;49.85;;;2.00;89.70;;;;;;5070341;28;20097;-75
2022/01/16 03:26:38;;;;;;;193.10;51.10;;;2.00;89.70;;;;;;5027441;28;20032;-75
2022/01/16 03:29:04;;;;;;;191.13;51.27;;;2.00;89.70;;;;;;5050255;28;20049;-75
2022/01/16 03:31:29;;;;;;;186.25;50.22;;;2.10;89.70;;;;;;5012723;28;20489;-75
2022/01/16 03:33:55;;;;;;;187.07;51.10;;;2.10;89.80;;;;;;5030265;28;20036;-75
2022/01/16 03:36:21;;;;;;;184.80;51.63;;;2.20;89.70;;;;;;5047904;28;20040;-75
2022/01/16 03:38:47;;;;;;;190.38;52.13;;;2.30;89.80;;;;;;5037497;28;20051;-75
2022/01/16 03:41:13;;;;;;;187.60;51.87;;;2.40;89.90;;;;;;5021483;28;20040;-75
2022/01/16 03:43:39;;;;;;;182.43;51.80;;;2.50;89.90;;;;;;5057099;28;20039;-76
2022/01/16 03:46:05;;;;;;;175.30;50.72;;;2.50;90.00;;;;;;5041022;28;20377;-75
2022/01/16 03:48:31;;;;;;;184.40;52.23;;;2.60;89.90;;;;;;5064132;28;20050;-75
2022/01/16 03:50:57;;;;;;;182.90;49.97;;;2.60;90.00;;;;;;5040619;28;20055;-75
2022/01/16 03:53:22;;;;;;;169.73;51.17;;;2.60;89.90;;;;;;5031573;28;20031;-75
2022/01/16 03:55:48;;;;;;;171.17;50.20;;;2.60;90.00;;;;;;5049667;28;20045;-75
2022/01/16 03:58:14;;;;;;;165.23;50.43;;;2.70;90.00;;;;;;5006905;28;20051;-75
2022/01/16 04:00:40;;;;;;;174.85;51.47;;;2.70;90.10;;;;;;5029723;28;20032;-75
2022/01/16 04:03:06;;;;;;;170.67;50.93;;;2.70;90.10;;;;;;5035244;28;20488;-75
2022/01/16 04:05:32;;;;;;;159.33;49.50;;;2.80;90.00;;;;;;5034000;28;20412;-75
2022/01/16 04:07:59;;;;;;;151.20;49.47;;;2.80;89.90;;;;;;5054164;28;20044;-75
2022/01/16 04:10:25;;;;;;;161.27;48.60;;;2.80;90.00;;;;;;5037905;28;20047;-75
2022/01/16 04:12:51;;;;;;;156.73;50.30;;;2.80;90.00;;;;;;5051133;28;20516;-75
2022/01/16 04:17:45;;;;;;;164.03;51.20;;;2.90;89.90;;;;;;5069143;28;20094;-75
2022/01/16 04:20:16;;;;;;;166.10;51.25;;;2.90;89.90;;;;;;5049504;28;20357;-76
2022/01/16 04:22:45;;;;;;;163.93;50.45;;;2.90;89.90;;;;;;5054737;28;20044;-76
2022/01/16 04:25:11;;;;;;;164.90;50.40;;;3.00;90.00;;;;;;5054640;28;20068;-75
2022/01/16 04:27:37;;;;;;;171.03;50.33;;;3.00;89.90;;;;;;5058248;28;20098;-75
2022/01/16 04:30:04;;;;;;;177.97;52.63;;;3.00;90.00;;;;;;5022516;28;20044;-75
2022/01/16 04:32:30;;;;;;;199.05;57.00;;;3.00;90.00;;;;;;5046156;28;20298;-76
2022/01/16 04:34:56;;;;;;;191.48;54.05;;;3.00;89.90;;;;;;5071073;28;20043;-75
2022/01/16 04:37:22;;;;;;;197.40;54.40;;;3.00;89.90;;;;;;5041575;28;20044;-75
2022/01/16 04:39:53;;;;;;;202.77;56.67;;;3.10;90.00;;;;;;5033694;28;20501;-75
2022/01/16 04:45:04;;;;;;;209.52;55.92;;;3.10;90.00;;;;;;5041287;28;20317;-75
2022/01/16 04:47:30;;;;;;;219.30;58.80;;;3.10;89.90;;;;;;5033682;28;20135;-75
2022/01/16 04:49:56;;;;;;;214.73;58.10;;;3.10;89.90;;;;;;5054596;28;20078;-75
2022/01/16 04:52:22;;;;;;;204.27;58.30;;;3.10;90.00;;;;;;5033566;28;20496;-75
2022/01/16 04:54:48;;;;;;;211.00;56.80;;;3.10;89.90;;;;;;5051095;28;20032;-76
2022/01/16 04:57:13;;;;;;;204.30;58.60;;;3.10;89.90;;;;;;5041062;28;20043;-75
2022/01/16 04:59:40;;;;;;;208.97;57.77;;;3.20;90.00;;;;;;5047934;28;20052;-75
2022/01/16 05:02:06;;;;;;;210.27;58.53;;;3.20;89.90;;;;;;5048949;28;20035;-75
2022/01/16 05:04:31;;;;;;;204.80;60.50;;;3.20;90.00;;;;;;5043676;28;20040;-75
2022/01/16 05:06:57;;;;;;;190.67;56.77;;;3.20;90.00;;;;;;5052449;28;20194;-75
2022/01/16 05:09:23;;;;;;;194.73;58.97;;;3.20;89.90;;;;;;5037585;28;20029;-75
2022/01/16 05:11:55;;;;;;;178.43;56.97;;;3.20;89.90;;;;;;5030543;28;20492;-75
2022/01/16 05:17:05;;;;;;;181.50;56.00;;;3.30;90.00;;;;;;5058111;28;20186;-75
2022/01/16 05:19:30;;;;;;;185.07;55.90;;;3.30;89.90;;;;;;5041855;28;20119;-75
2022/01/16 05:21:56;;;;;;;175.43;52.30;;;3.30;89.90;;;;;;5056381;28;20071;-75
2022/01/16 05:24:24;;;;;;;172.73;54.17;;;3.30;90.00;;;;;;5034026;28;20052;-75
2022/01/16 05:26:50;;;;;;;170.98;53.67;;;3.30;89.90;;;;;;5038949;28;20095;-75
2022/01/16 05:29:16;;;;;;;169.52;53.75;;;3.30;90.00;;;;;;5062560;28;20046;-75
2022/01/16 05:31:44;;;;;;;169.97;53.03;;;3.30;90.00;;;;;;5023124;28;20668;-75
2022/01/16 05:34:18;;;;;;;166.60;53.92;;;3.30;89.90;;;;;;5053848;28;20484;-75
2022/01/16 05:36:44;;;;;;;165.90;54.35;;;3.40;89.90;;;;;;5050325;28;20041;-75
2022/01/16 05:39:11;;;;;;;168.80;53.15;;;3.40;89.90;;;;;;5063178;28;20119;-75
2022/01/16 05:41:36;;;;;;;164.20;52.88;;;3.40;89.90;;;;;;5041231;28;20036;-75
2022/01/16 05:44:03;;;;;;;152.47;51.60;;;3.40;89.90;;;;;;5050943;28;20446;-75
2022/01/16 05:46:28;;;;;;;150.68;52.28;;;3.40;89.90;;;;;;5055374;28;20123;-75
2022/01/16 05:48:54;;;;;;;163.47;50.23;;;3.40;90.00;;;;;;5021296;28;20401;-75
2022/01/16 05:51:20;;;;;;;159.27;52.50;;;3.50;89.90;;;;;;5049278;28;20040;-75
2022/01/16 05:53:46;;;;;;;163.67;52.80;;;3.50;89.80;;;;;;5060986;28;20039;-75
2022/01/16 05:56:15;;;;;;;148.17;52.13;;;3.50;89.90;;;;;;5055541;28;20049;-75
2022/01/16 05:58:41;;;;;;;142.07;51.35;;;3.50;89.90;;;;;;5047845;28;20048;-76
2022/01/16 06:01:07;;;;;;;136.93;50.27;;;3.50;89.90;;;;;;5039032;28;20033;-76
2022/01/16 06:03:32;;;;;;;131.37;48.73;;;3.50;89.90;;;;;;5068051;28;20480;-75
2022/01/16 06:05:58;;;;;;;140.43;48.63;;;3.50;89.90;;;;;;5031551;28;20360;-75
2022/01/16 06:08:24;;;;;;;136.60;48.83;;;3.50;89.90;;;;;;5037323;28;20040;-75
2022/01/16 06:10:50;;;;;;;131.30;48.63;;;3.60;89.90;;;;;;5059613;28;20056;-75
2022/01/16 06:13:15;;;;;;;131.13;49.00;;;3.60;89.90;;;;;;5060584;28;20457;-75
2022/01/16 06:15:41;;;;;;;134.30;48.40;;;3.60;89.90;;;;;;5065572;28;20079;-75
2022/01/16 06:18:07;;;;;;;130.27;48.47;;;3.60;89.90;;;;;;5056154;28;20565;-76
2022/01/16 06:20:34;;;;;;;122.80;48.20;;;3.60;89.90;;;;;;5027583;28;20117;-75
2022/01/16 06:23:00;;;;;;;120.47;47.97;;;3.60;89.80;;;;;;5060033;28;20154;-75
2022/01/16 06:25:26;;;;;;;131.15;47.65;;;3.60;89.80;;;;;;5020482;28;20046;-75
2022/01/16 06:27:52;;;;;;;137.63;48.13;;;3.70;89.80;;;;;;5067338;28;20122;-75
2022/01/16 06:30:19;;;;;;;131.40;48.15;;;3.70;89.80;;;;;;5037997;28;20304;-75
2022/01/16 06:32:45;;;;;;;132.50;50.67;;;3.70;89.60;;;;;;5043171;28;20067;-76
2022/01/16 06:35:13;;;;;;;133.03;48.70;;;3.70;89.60;;;;;;5054414;28;20040;-75
2022/01/16 06:37:40;;;;;;;133.50;49.45;;;3.70;89.60;;;;;;5055167;28;20039;-75
2022/01/16 06:40:06;;;;;;;136.10;48.70;;;3.70;89.60;;;;;;5052603;28;20043;-75
2022/01/16 06:42:32;;;;;;;119.97;46.35;;;3.60;89.60;;;;;;5072438;28;20046;-75
2022/01/16 06:44:58;;;;;;;118.38;45.50;;;3.70;89.60;;;;;;5046136;28;20040;-77
2022/01/16 06:47:24;;;;;;;120.93;46.63;;;3.70;89.60;;;;;;5046157;28;20392;-75
2022/01/16 06:49:50;;;;;;;108.70;46.17;;;3.70;89.70;;;;;;5038347;28;20045;-75
2022/01/16 06:52:16;;;;;;;109.13;45.23;;;3.70;89.70;;;;;;5036984;28;20271;-75
2022/01/16 06:54:41;;;;;;;116.30;46.30;;;3.80;89.60;;;;;;5053205;28;20036;-75
2022/01/16 06:57:08;;;;;;;111.17;46.40;;;3.80;89.70;;;;;;5035505;28;20051;-75
2022/01/16 06:59:36;;;;;;;110.68;43.63;;;3.80;89.60;;;;;;5055949;28;20047;-75
2022/01/16 07:02:01;;;;;;;111.65;44.65;;;3.80;89.60;;;;;;5051139;28;20078;-75
2022/01/16 07:04:27;;;;;;;110.20;46.20;;;3.80;89.60;;;;;;5055628;28;20075;-75
2022/01/16 07:06:53;;;;;;;104.33;44.70;;;3.80;89.70;;;;;;5052819;28;20083;-75
2022/01/16 07:09:19;;;;;;;107.00;43.60;;;3.90;89.60;;;;;;5042805;28;20044;-75
2022/01/16 07:11:45;;;;;;;107.00;43.77;;;3.90;89.60;;;;;;5063869;28;20040;-75
2022/01/16 07:14:10;;;;;;;102.00;45.03;;;3.90;89.70;;;;;;5032534;28;20639;-75
2022/01/16 07:16:36;;;;;;;99.27;42.93;;;3.90;89.60;;;;;;5060960;28;20032;-75
2022/01/16 07:19:02;;;;;;;98.60;42.90;;;3.80;89.60;;;;;;5051151;28;20124;-75
2022/01/16 07:21:30;;;;;;;94.93;41.40;;;3.80;89.60;;;;;;5055877;28;20463;-75
2022/01/16 07:23:56;;;;;;;102.23;42.33;;;3.80;89.60;;;;;;5048375;28;20063;-75
2022/01/16 07:26:22;;;;;;;85.80;39.93;;;3.80;89.60;;;;;;5034412;28;20037;-75
2022/01/16 07:28:48;;;;;;;75.70;37.65;;;3.80;89.60;;;;;;5032956;28;20406;-76
2022/01/16 07:31:13;;;;;;;74.83;37.10;;;3.80;89.70;;;;;;5062855;28;20123;-75
2022/01/16 07:33:39;;;;;;;72.73;37.27;;;3.90;89.70;;;;;;5040481;28;20036;-75
2022/01/16 07:36:05;;;;;;;73.37;36.13;;;3.90;89.70;;;;;;5040704;28;20527;-75
2022/01/16 07:38:31;;;;;;;68.90;34.33;;;4.00;89.80;;;;;;5047435;28;20032;-75
2022/01/16 07:40:57;;;;;;;68.80;34.55;;;4.00;89.80;;;;;;5051709;28;20048;-75
2022/01/16 07:43:23;;;;;;;65.27;32.83;;;4.10;89.80;;;;;;5057437;28;20568;-75
2022/01/16 07:45:49;;;;;;;60.95;31.77;;;4.20;89.90;;;;;;5034303;28;20278;-75
2022/01/16 07:48:14;;;;;;;57.53;29.77;;;4.30;89.80;;;;;;5033666;28;20062;-75
2022/01/16 07:50:40;;;;;;;60.07;31.07;;;4.30;89.70;;;;;;5037359;28;20404;-75
2022/01/16 07:53:06;;;;;;;57.93;29.80;;;4.40;89.70;;;;;;5056674;28;20043;-75
2022/01/16 07:55:32;;;;;;;53.73;27.70;;;4.40;89.60;;;;;;5033116;28;20044;-75
2022/01/16 07:57:58;;;;;;;53.75;26.90;;;4.40;89.60;;;;;;5025005;28;20055;-75
2022/01/16 08:00:25;;;;;;;50.50;27.60;;;4.40;89.60;;;;;;5056434;28;20393;-75
2022/01/16 08:02:51;;;;;;;49.03;27.52;;;4.50;89.60;;;;;;5045602;28;20302;-75
2022/01/16 08:05:18;;;;;;;49.45;26.77;;;4.50;89.50;;;;;;5040768;28;20052;-75
2022/01/16 08:07:44;;;;;;;47.60;26.08;;;4.50;89.70;;;;;;5051029;28;20040;-75
2022/01/16 08:10:11;;;;;;;49.45;26.48;;;4.50;89.60;;;;;;5044974;28;20046;-75
2022/01/16 08:12:37;;;;;;;52.00;24.83;;;4.50;89.60;;;;;;5066414;28;20059;-75
2022/01/16 08:15:04;;;;;;;50.10;25.77;;;4.60;89.60;;;;;;5058657;28;20499;-76
2022/01/16 08:17:30;;;;;;;45.63;24.40;;;4.60;89.70;;;;;;5029252;28;20064;-75
2022/01/16 08:19:56;;;;;;;47.50;25.43;;;4.60;89.60;;;;;;5061056;28;20126;-75
2022/01/16 08:22:22;;;;;;;47.90;24.63;;;4.70;89.60;;;;;;5027929;28;20574;-75
2022/01/16 08:24:47;;;;;;;44.33;25.40;;;4.70;89.60;;;;;;5036309;28;20075;-75
2022/01/16 08:27:15;;;;;;;40.57;24.33;;;4.70;89.60;;;;;;5031213;28;20039;-75
2022/01/16 08:29:41;;;;;;;46.53;24.80;;;4.80;89.60;;;;;;5061423;28;20040;-75
2022/01/16 08:32:08;;;;;;;47.25;24.70;;;4.80;89.50;;;;;;5049000;28;20045;-75
2022/01/16 08:34:33;;;;;;;49.13;24.73;;;4.80;89.50;;;;;;5027127;28;20123;-75
2022/01/16 08:36:59;;;;;;;48.67;24.30;;;4.90;89.50;;;;;;5056125;28;20124;-75
2022/01/16 08:39:25;;;;;;;45.07;24.73;;;4.90;89.50;;;;;;5056886;28;20042;-75
2022/01/16 08:41:50;;;;;;;46.60;24.87;;;4.90;89.60;;;;;;5059298;28;20044;-75
2022/01/16 08:44:16;;;;;;;47.47;25.30;;;5.00;89.40;;;;;;5046066;28;20059;-75
2022/01/16 08:46:42;;;;;;;47.63;24.93;;;5.00;89.40;;;;;;5038920;28;20047;-75
2022/01/16 08:49:07;;;;;;;47.80;24.57;;;5.00;89.40;;;;;;5036259;28;20131;-75
2022/01/16 08:51:33;;;;;;;47.67;25.03;;;5.10;89.30;;;;;;5038433;28;20036;-75
2022/01/16 08:53:59;;;;;;;44.00;25.40;;;5.10;89.20;;;;;;5028697;28;20033;-75
2022/01/16 08:56:24;;;;;;;47.43;26.17;;;5.10;89.30;;;;;;5044575;28;20040;-75
2022/01/16 08:58:50;;;;;;;45.50;24.13;;;5.20;89.30;;;;;;5063025;28;20051;-75
2022/01/16 09:01:16;;;;;;;53.23;23.90;;;5.20;89.30;;;;;;5060367;28;20036;-75
2022/01/16 09:03:42;;;;;;;44.83;24.37;;;5.20;89.30;;;;;;5041150;28;20485;-75
2022/01/16 09:06:08;;;;;;;44.43;23.10;;;5.20;89.20;;;;;;5041237;28;20044;-75
2022/01/16 09:08:34;;;;;;;43.20;23.07;;;5.20;89.10;;;;;;5056868;28;20033;-75
2022/01/16 09:10:59;;;;;;;42.37;23.40;;;5.30;89.10;;;;;;5039002;28;20052;-75
2022/01/16 09:13:25;;;;;;;47.77;23.20;;;5.30;89.30;;;;;;5039085;28;20568;-75
2022/01/16 09:15:51;;;;;;;43.73;21.70;;;5.30;89.20;;;;;;5046120;28;20396;-75
2022/01/16 09:18:19;;;;;;;38.78;20.58;;;5.30;89.10;;;;;;5060751;28;20144;-75
2022/01/16 09:20:45;;;;;;;39.83;20.40;;;5.40;89.10;;;;;;5044577;28;20096;-75
2022/01/16 09:23:11;;;;;;;37.92;18.65;;;5.40;89.20;;;;;;5044145;28;20040;-75
2022/01/16 09:25:37;;;;;;;38.50;18.55;;;5.40;89.30;;;;;;5025404;28;20043;-75
2022/01/16 09:28:03;;;;;;;43.23;18.20;;;5.40;89.10;;;;;;5056972;28;20044;-75
2022/01/16 09:30:31;;;;;;;38.58;17.48;;;5.50;89.00;;;;;;5075624;28;20036;-75
2022/01/16 09:32:58;;;;;;;34.95;17.20;;;5.50;89.20;;;;;;5040585;28;20044;-75
2022/01/16 09:35:24;;;;;;;35.45;17.35;;;5.50;89.00;;;;;;5058074;28;20716;-75
2022/01/16 09:37:51;;;;;;;38.50;16.50;;;5.60;89.10;;;;;;5055445;28;20317;-75
2022/01/16 09:40:19;;;;;;;35.30;16.00;;;5.60;89.10;;;;;;5058380;28;20312;-75
2022/01/16 09:42:46;;;;;;;38.97;16.75;;;5.60;89.10;;;;;;5036889;28;20036;-75
2022/01/16 09:45:14;;;;;;;33.63;15.73;;;5.60;89.10;;;;;;5053069;28;20473;-75
2022/01/16 09:47:42;;;;;;;33.42;15.75;;;5.60;89.10;;;;;;5057588;28;20468;-75
2022/01/16 09:50:08;;;;;;;28.30;14.82;;;5.60;89.00;;;;;;5059883;28;20129;-75
2022/01/16 09:52:39;;;;;;;32.80;13.73;;;5.70;89.00;;;;;;5037589;28;20042;-75
2022/01/16 09:55:06;;;;;;;28.25;13.20;;;5.70;89.00;;;;;;5022785;28;20036;-75
2022/01/16 09:57:34;;;;;;;29.33;13.45;;;5.70;88.90;;;;;;5057431;28;20444;-75
2022/01/16 10:00:00;;;;;;;26.58;13.23;;;5.70;88.80;;;;;;5048706;28;20594;-75
2022/01/16 10:02:26;;;;;;;25.60;12.98;;;5.80;88.80;;;;;;5038291;28;20549;-75
2022/01/16 10:04:53;;;;;;;32.70;12.90;;;5.80;88.80;;;;;;5040386;28;20182;-75
2022/01/16 10:07:19;;;;;;;23.98;11.55;;;5.80;88.60;;;;;;5058780;28;20509;-75
2022/01/16 10:10:04;;;;;;;26.00;12.02;;;5.80;88.40;;;;;;5056558;28;20090;-75
2022/01/16 10:12:32;;;;;;;27.55;12.82;;;5.90;88.30;;;;;;5051648;28;20036;-75
2022/01/16 10:15:13;;;;;;;25.13;11.27;;;5.90;88.10;;;;;;5053048;28;20102;-75
2022/01/16 10:17:44;;;;;;;23.20;11.35;;;5.90;88.30;;;;;;5054766;28;20040;-75
2022/01/16 10:20:10;;;;;;;24.02;11.05;;;5.90;88.10;;;;;;5049404;28;20044;-75
2022/01/16 10:22:49;;;;;;;25.23;10.77;;;5.90;88.20;;;;;;5040901;28;20686;-75
2022/01/16 10:25:17;;;;;;;25.52;9.38;;;5.90;88.20;;;;;;5054918;28;20043;-75
2022/01/16 10:27:46;;;;;;;24.27;9.60;;;5.90;88.00;;;;;;5064085;28;20126;-75
2022/01/16 10:30:15;;;;;;;22.25;9.18;;;5.90;87.80;;;;;;5042969;28;20024;-75
2022/01/16 10:32:43;;;;;;;21.20;8.88;;;5.90;88.00;;;;;;5062755;28;20047;-75
2022/01/16 10:35:20;;;;;;;24.48;8.68;;;5.90;87.50;;;;;;5061927;28;20086;-75
2022/01/16 10:37:54;;;;;;;28.08;8.20;;;6.00;87.50;;;;;;5062090;28;20072;-75
2022/01/16 10:40:32;;;;;;;16.23;8.85;;;5.90;87.40;;;;;;5047314;28;20098;-75
2022/01/16 10:43:03;;;;;;;25.67;9.02;;;6.00;87.20;;;;;;5060523;28;20168;-75
2022/01/16 10:45:30;;;;;;;22.40;8.02;;;6.00;87.30;;;;;;5061048;28;20044;-75
2022/01/16 10:47:58;;;;;;;20.40;7.78;;;6.00;87.40;;;;;;5043490;28;20054;-75
2022/01/16 10:50:44;;;;;;;23.35;8.23;;;6.00;87.40;;;;;;5037123;28;20044;-75
2022/01/16 10:53:19;;;;;;;21.00;8.52;;;6.00;87.40;;;;;;5056293;28;20089;-76
2022/01/16 10:55:49;;;;;;;23.73;8.40;;;6.00;87.00;;;;;;5059717;28;20055;-75
2022/01/16 10:58:19;;;;;;;25.00;9.18;;;6.00;86.90;;;;;;5063069;28;20519;-75
2022/01/16 11:00:46;;;;;;;19.25;9.00;;;6.00;86.80;;;;;;5060349;28;20051;-75
2022/01/16 11:03:14;;;;;;;21.42;9.15;;;6.10;87.10;;;;;;5055718;28;20067;-75
2022/01/16 11:05:45;;;;;;;24.20;9.10;;;6.10;86.60;;;;;;5059443;28;20165;-75
2022/01/16 11:08:17;;;;;;;23.45;9.77;;;6.10;86.60;;;;;;5041484;28;20044;-75
2022/01/16 11:10:49;;;;;;;17.02;8.45;;;6.10;86.70;;;;;;5058953;28;20051;-75
2022/01/16 11:13:17;;;;;;;25.13;9.88;;;6.10;86.80;;;;;;5052150;28;20054;-75
2022/01/16 11:15:48;;;;;;;24.20;11.70;;;6.10;86.60;;;;;;5041740;28;20051;-75
2022/01/16 11:18:15;;;;;;;21.38;13.00;;;6.20;86.40;;;;;;5030186;28;20340;-75
2022/01/16 11:20:45;;;;;;;26.83;11.45;;;6.20;86.30;;;;;;5038488;28;20044;-75
2022/01/16 11:25:39;;;;;;;29.45;12.35;;;6.30;86.40;;;;;;5011327;28;20550;-74
2022/01/16 11:28:11;;;;;;;23.00;12.13;;;6.40;86.60;;;;;;5034103;28;20043;-74
2022/01/16 11:30:59;;;;;;;24.35;12.57;;;6.40;86.70;;;;;;5053342;28;20121;-74
2022/01/16 11:33:28;;;;;;;23.77;11.35;;;6.50;86.60;;;;;;5070333;28;20044;-75
2022/01/16 11:36:16;;;;;;;19.02;9.43;;;6.50;86.40;;;;;;5037231;28;20036;-74
2022/01/16 11:38:55;;;;;;;20.17;10.68;;;6.50;86.20;;;;;;5043919;28;20060;-74
2022/01/16 11:41:26;;;;;;;21.45;9.25;;;6.60;86.00;;;;;;5055364;28;20098;-74
2022/01/16 11:43:53;;;;;;;20.20;9.88;;;6.60;86.10;;;;;;5059993;28;20452;-74
2022/01/16 11:46:20;;;;;;;17.48;9.13;;;6.60;85.70;;;;;;5039452;28;20151;-74
2022/01/16 11:48:58;;;;;;;15.98;8.43;;;6.60;85.60;;;;;;5037369;28;20393;-74
2022/01/16 11:51:36;;;;;;;21.30;8.50;;;6.70;85.50;;;;;;5044198;28;20047;-75
2022/01/16 11:54:04;;;;;;;18.13;8.60;;;6.70;84.80;;;;;;5051322;28;20048;-74
2022/01/16 11:56:44;;;;;;;20.90;8.93;;;6.60;84.50;;;;;;5052157;28;20041;-74
2022/01/16 11:59:39;;;;;;;16.52;8.77;;;6.70;85.20;;;;;;5049279;28;20142;-74
2022/01/16 12:02:08;;;;;;;16.02;7.95;;;6.70;85.20;;;;;;5042863;28;20072;-74
2022/01/16 12:04:34;;;;;;;17.70;9.13;;;6.70;84.90;;;;;;5038797;28;20083;-74
2022/01/16 12:07:06;;;;;;;22.83;8.97;;;6.70;84.60;;;;;;5038293;28;20068;-74
2022/01/16 12:09:40;;;;;;;16.42;8.10;;;6.70;85.10;;;;;;5047149;28;20035;-74
2022/01/16 12:12:11;;;;;;;19.00;8.77;;;6.70;84.50;;;;;;5049367;28;20509;-74
2022/01/16 12:15:02;;;;;;;16.02;8.60;;;6.70;83.70;;;;;;5041608;28;20089;-74
2022/01/16 12:17:33;;;;;;;22.30;8.60;;;6.70;84.10;;;;;;5038660;28;20048;-74
2022/01/16 12:20:15;;;;;;;15.68;8.10;;;6.60;84.10;;;;;;5035050;28;20044;-75
2022/01/16 12:22:44;;;;;;;18.23;8.80;;;6.70;83.60;;;;;;5055466;28;20334;-75
2022/01/16 12:25:37;;;;;;;21.40;9.93;;;6.70;83.80;;;;;;5040377;28;20556;-74
2022/01/16 12:28:08;;;;;;;19.88;8.32;;;6.60;83.40;;;;;;5051071;28;20101;-74
2022/01/16 12:30:38;;;;;;;19.83;8.48;;;6.60;82.10;;;;;;5059002;28;20047;-75
2022/01/16 12:33:10;;;;;;;19.40;8.15;;;6.60;82.90;;;;;;5041556;28;20040;-74
2022/01/16 12:35:39;;;;;;;20.83;8.65;;;6.60;82.90;;;;;;5059630;28;20041;-74
2022/01/16 12:38:32;;;;;;;22.08;8.00;;;6.60;83.30;;;;;;5050803;28;20045;-74
2022/01/16 12:41:06;;;;;;;18.65;8.02;;;6.60;81.80;;;;;;5056765;28;20295;-74
2022/01/16 12:43:40;;;;;;;21.45;8.32;;;6.60;82.80;;;;;;5051435;28;20041;-74
2022/01/16 12:46:09;;;;;;;19.92;8.45;;;6.60;82.90;;;;;;5018462;28;20163;-74
2022/01/16 12:48:41;;;;;;;20.30;7.68;;;6.60;83.40;;;;;;5055147;28;20115;-74
2022/01/16 12:51:07;;;;;;;24.23;7.63;;;6.60;83.60;;;;;;5053706;28;20063;-74
2022/01/16 12:53:42;;;;;;;22.73;7.28;;;6.60;83.80;;;;;;5054444;28;20041;-74
2022/01/16 12:56:18;;;;;;;18.45;6.80;;;6.60;83.70;;;;;;5057716;28;20067;-74
2022/01/16 12:58:44;;;;;;;20.23;8.30;;;6.60;83.80;;;;;;5042546;28;20098;-74
2022/01/16 13:01:10;;;;;;;24.15;7.15;;;6.60;84.10;;;;;;5041309;28;20404;-74
2022/01/16 13:03:37;;;;;;;28.67;7.63;;;6.60;84.20;;;;;;5038486;28;20048;-74
2022/01/16 13:06:26;;;;;;;22.42;7.88;;;6.60;84.30;;;;;;5038594;28;20110;-74
2022/01/16 13:09:07;;;;;;;15.45;6.80;;;6.60;84.60;;;;;;5051769;28;20120;-74
2022/01/16 13:11:35;;;;;;;20.27;7.22;;;6.60;84.60;;;;;;5054005;28;20051;-74
2022/01/16 13:14:02;;;;;;;19.17;7.25;;;6.60;84.90;;;;;;5052062;28;20044;-74
2022/01/16 13:16:31;;;;;;;34.47;17.77;;;6.60;84.70;;;;;;5036995;28;20040;-74
2022/01/16 13:22:13;;;;;;;20.08;7.90;;;6.70;84.70;;;;;;5057907;28;20090;-74
2022/01/16 13:24:51;;;;;;;15.65;6.80;;;6.70;85.00;;;;;;5061387;28;20115;-74
2022/01/16 13:27:23;;;;;;;21.02;8.27;;;6.80;85.10;;;;;;5059722;28;20036;-74
2022/01/16 13:30:10;;;;;;;21.80;11.32;;;6.80;85.20;;;;;;5027983;28;20404;-74